Aeroporto :
LOGIN :

Iscrizione | Disclaimer

   EN    FR    IT 

 










Sommario :    VFR   VFR Marginale   IFR   IFR Intensivo   IFR Molto Intensivo
Visibilità : 
Base nubi : 
>= 8 km
>= 3000ft
5 / 8 km
1000 / 3000 ft
1500m / 5 km
500 / 1000 ft
800 / 1500m
200 / 500 ft
< 800m
< 200 ft
Simboli :   Temporali  Nebbia  Neve Forte  Precipitazioni Forti  Vento > 20 kt
SIGMETs :   Varie  Temporali  Ghiacco  Turbolenza  Onda orograficha  Ceneri Vulcaniche






- Altitudine del aeroporto : 117 ft
- Codice IATA : NWI


EGSH - Norwich

ULTIMO METAR :
  • 240820Z 33012KT 290V360 9999 VCSH FEW022 07/01 Q1015 NOSIG

METARs OBSOLETI :
  • 240750Z 34013G24KT 290V010 9999 -SHRA FEW022 07/01 Q1015 TEMPO SHRA
  • 240720Z 32012KT 280V350 9999 VCSH FEW022 06/02 Q1015 NOSIG
  • 240650Z 32011KT 9999 VCSH FEW021 SCT040 06/01 Q1015 NOSIG
  • 240620Z 32011KT 280V350 9999 VCSH FEW021 SCT040 06/02 Q1015
  • 240550Z 32011KT 9999 VCSH SCT049 05/02 Q1015
  • 240520Z 31010KT 9999 VCSH FEW024 SCT049 05/01 Q1015
  • 240450Z 31009KT 280V360 9999 VCSH FEW016 05/02 Q1016
  • 240420Z AUTO 31009KT 9999 BKN049/// 05/01 Q1016
  • 240350Z AUTO 32010KT 290V360 9999 -RA FEW003/// SCT020/// 05/02 Q1016

TAF TAF EGSH
Valido dal 24 a 09 ore il 24 a 18 ore UTC


240753Z 2409/2418 33010KT 9999 SCT030
PROB30
TEMPO 2409/2416 33015G25KT 5000 SHRA
ATIS : +44 1603 420 640



MetMap, La meteo Aeronautica in un colpo d'occhio ! - Copyright ORBIFLY Dicembre 2007 - Disclaimer

ORBIFLY MET'MAP TEAM :

Programmazione e sviluppo : Alexandra Zaïnal
Concezione : Baudouin d'Aumeries
Supporto tecnico e logistico : Manuel Goepfert
Aiuto : Marc-Olivier Méhu
Aiuto per la traduzione : Arnaldo La Scala




FONTI E CREDITI :

   NOAA